.
WxDataArchive / Data Records for 2007-03-08
2007-03-07 March 2007 2007-03-09

Data Records for Thursday, 08 March 2007

Time	Temp	Chill	HIndex	Humid	Dewpt	 Wind 	HiWind	WindDir	Rain 	Barom 
-----	----	-----	------	-----	-----	------	------	-------	-----	----- 
00:00	16.1	16.1	16.1	86	12.7	0	0	---	0.00	30.329 
00:05	15.9	15.9	15.9	86	12.5	0	0	---	0.00	30.325 
00:10	15.9	15.9	15.9	86	12.5	0	0	---	0.00	30.324 
00:15	15.7	15.7	15.7	86	12.3	0	0	---	0.00	30.324 
00:20	15.7	15.7	15.7	87	12.5	0	0	---	0.00	30.320 
00:25	15.9	15.9	15.9	87	12.7	0	0	---	0.00	30.320 
00:30	15.9	15.9	15.9	87	12.7	0	0	---	0.00	30.318 
00:35	15.9	15.9	15.9	87	12.7	0	0	---	0.00	30.317 
00:40	15.9	15.9	15.9	87	12.7	0	0	---	0.00	30.317 
00:45	15.7	15.7	15.7	87	12.5	0	0	---	0.00	30.316 
00:50	15.7	15.7	15.7	87	12.5	0	0	---	0.00	30.316 
00:55	15.9	15.9	15.9	87	12.7	0	0	---	0.00	30.316 
01:00	16.1	16.1	16.1	87	12.9	0	0	---	0.00	30.316 
01:05	16.1	16.1	16.1	87	12.9	0	0	---	0.00	30.316 
01:10	16.2	16.2	16.2	87	13.0	0	0	---	0.00	30.315 
01:15	16.1	16.1	16.1	87	12.9	0	0	---	0.00	30.315 
01:20	16.2	16.2	16.2	87	13.0	0	0	---	0.00	30.314 
01:25	16.2	16.2	16.2	87	13.0	0	0	---	0.00	30.313 
01:30	16.1	16.1	16.1	87	12.9	0	0	---	0.00	30.314 
01:35	16.1	16.1	16.1	87	12.9	0	0	---	0.00	30.315 
01:40	15.9	15.9	15.9	87	12.7	0	0	---	0.00	30.314 
01:45	15.7	15.7	15.7	87	12.5	0	0	---	0.00	30.316 
01:50	15.6	15.6	15.6	87	12.4	0	0	---	0.00	30.317 
01:55	15.4	15.4	15.4	87	12.2	0	0	---	0.00	30.315 
02:00	15.2	15.2	15.2	86	11.8	0	0	---	0.00	30.315 
02:05	15.1	15.1	15.1	86	11.7	0	0	---	0.00	30.314 
02:10	14.9	14.9	14.9	87	11.7	0	0	---	0.00	30.315 
02:15	14.8	14.8	14.8	86	11.4	0	0	---	0.00	30.312 
02:20	14.8	14.8	14.8	87	11.6	0	0	---	0.00	30.309 
02:25	14.8	14.8	14.8	87	11.6	0	0	---	0.00	30.306 
02:30	14.8	14.8	14.8	87	11.6	0	0	---	0.00	30.303 
02:35	14.9	14.9	14.9	87	11.7	0	0	---	0.00	30.303 
02:40	14.9	14.9	14.9	88	12.0	0	0	---	0.00	30.302 
02:45	14.9	14.9	14.9	88	12.0	0	0	---	0.00	30.301 
02:50	14.9	14.9	14.9	87	11.7	0	0	---	0.00	30.300 
02:55	14.8	14.8	14.8	87	11.6	0	0	---	0.00	30.300 
03:00	14.6	14.6	14.6	87	11.4	0	0	---	0.00	30.301 
03:05	14.4	14.4	14.4	87	11.3	0	0	---	0.00	30.301 
03:10	14.3	14.3	14.3	87	11.2	0	0	---	0.00	30.301 
03:15	14.1	14.1	14.1	87	11.0	0	0	---	0.00	30.301 
03:20	14.1	14.1	14.1	87	11.0	0	0	---	0.00	30.301 
03:25	14.1	14.1	14.1	87	11.0	0	0	---	0.00	30.302 
03:30	14.1	14.1	14.1	88	11.2	0	0	---	0.00	30.301 
03:35	14.1	14.1	14.1	88	11.2	0	0	---	0.00	30.300 
03:40	14.3	14.3	14.3	88	11.4	0	0	---	0.00	30.301 
03:45	14.3	14.3	14.3	88	11.4	0	0	---	0.00	30.301 
03:50	14.1	14.1	14.1	88	11.2	0	0	---	0.00	30.300 
03:55	14.1	14.1	14.1	88	11.2	0	0	---	0.00	30.301 
04:00	14.0	14.0	14.0	87	10.9	0	0	---	0.00	30.300 
04:05	13.8	13.8	13.8	87	10.7	0	0	---	0.00	30.301 
04:10	13.8	13.8	13.8	87	10.7	0	0	---	0.00	30.302 
04:15	13.6	13.6	13.6	87	10.5	0	0	---	0.00	30.300 
04:20	13.5	13.5	13.5	87	10.4	0	0	---	0.00	30.302 
04:25	13.3	13.3	13.3	87	10.2	0	0	---	0.00	30.296 
04:30	13.3	13.3	13.3	87	10.2	0	0	---	0.00	30.297 
04:35	13.3	13.3	13.3	87	10.2	0	0	---	0.00	30.293 
04:40	13.5	13.5	13.5	88	10.6	0	0	---	0.00	30.296 
04:45	13.6	13.6	13.6	88	10.7	0	0	---	0.00	30.292 
04:50	13.5	13.5	13.5	87	10.4	0	0	---	0.00	30.292 
04:55	13.5	13.5	13.5	87	10.4	0	0	---	0.00	30.290 
05:00	13.5	13.5	13.5	87	10.4	0	0	---	0.00	30.288 
05:05	13.5	13.5	13.5	87	10.4	0	0	---	0.00	30.289 
05:10	13.5	13.5	13.5	87	10.4	0	0	---	0.00	30.291 
05:15	13.5	13.5	13.5	87	10.4	0	1	90	0.00	30.290 
05:20	13.5	13.5	13.5	87	10.4	0	0	---	0.00	30.292 
05:25	13.5	13.5	13.5	87	10.4	0	0	---	0.00	30.296 
05:30	13.3	13.3	13.3	87	10.2	0	0	---	0.00	30.296 
05:35	13.1	13.1	13.1	86	9.7	0	0	---	0.00	30.298 
05:40	12.9	12.9	12.9	86	9.5	0	0	---	0.00	30.293 
05:45	12.9	12.9	12.9	86	9.5	0	0	---	0.00	30.292 
05:50	12.9	12.9	12.9	86	9.5	0	0	---	0.00	30.292 
05:55	12.9	12.9	12.9	86	9.5	0	0	---	0.00	30.290 
06:00	12.9	12.9	12.9	86	9.5	0	0	---	0.00	30.291 
06:05	12.9	12.9	12.9	86	9.5	0	0	---	0.00	30.294 
06:10	12.9	12.9	12.9	86	9.5	0	0	---	0.00	30.293 
06:15	12.9	12.9	12.9	86	9.5	0	0	---	0.00	30.294 
06:20	12.8	12.8	12.8	86	9.4	0	0	---	0.00	30.295 
06:25	12.8	12.8	12.8	86	9.4	0	0	---	0.00	30.292 
06:30	12.6	12.6	12.6	86	9.2	0	0	---	0.00	30.291 
06:35	12.4	12.4	12.4	86	9.0	0	0	---	0.00	30.290 
06:40	12.4	12.4	12.4	86	9.0	0	0	---	0.00	30.295 
06:45	12.4	12.4	12.4	86	9.0	0	0	---	0.00	30.293 
06:50	12.6	12.6	12.6	86	9.2	0	0	---	0.00	30.294 
06:55	12.4	12.4	12.4	86	9.0	0	0	---	0.00	30.295 
07:00	12.4	12.4	12.4	86	9.0	0	0	---	0.00	30.299 
07:05	12.4	12.4	12.4	86	9.0	0	0	---	0.00	30.300 
07:10	12.4	12.4	12.4	86	9.0	0	0	---	0.00	30.305 
07:15	12.3	12.3	12.3	86	8.9	0	0	---	0.00	30.303 
07:20	12.4	12.4	12.4	86	9.0	0	0	---	0.00	30.300 
07:25	12.6	12.6	12.6	87	9.5	0	0	---	0.00	30.303 
07:30	12.9	12.9	12.9	87	9.8	0	0	---	0.00	30.311 
07:35	13.3	13.3	13.3	87	10.2	0	0	---	0.00	30.311 
07:40	13.8	13.8	13.8	88	10.9	0	0	---	0.00	30.309 
07:45	14.3	14.3	14.3	88	11.4	0	0	---	0.00	30.308 
07:50	14.9	14.9	14.9	88	12.0	0	0	---	0.00	30.309 
07:55	15.6	15.6	15.6	89	12.9	0	0	---	0.00	30.309 
08:00	16.5	16.5	16.5	89	13.8	0	1	90	0.00	30.307 
08:05	17.3	17.3	17.3	88	14.4	0	0	---	0.00	30.310 
08:10	17.8	17.8	17.8	88	14.9	0	0	---	0.00	30.310 
08:15	18.3	18.3	18.3	87	15.1	0	1	90	0.00	30.321 
08:20	18.8	18.8	18.8	86	15.3	0	1	90	0.00	30.323 
08:25	19.2	19.2	19.2	85	15.4	0	1	90	0.00	30.323 
08:30	19.7	19.7	19.7	84	15.7	0	1	90	0.00	30.323 
08:35	20.2	20.2	20.2	82	15.6	0	1	90	0.00	30.325 
08:40	20.6	20.6	20.6	81	15.7	0	1	90	0.00	30.326 
08:45	21.1	21.1	21.1	78	15.3	0	1	90	0.00	30.329 
08:50	21.6	21.6	21.6	77	15.5	0	1	90	0.00	30.329 
08:55	22.1	22.1	22.1	75	15.4	0	1	90	0.00	30.328 
09:00	22.9	22.9	22.9	73	15.6	0	1	90	0.00	30.329 
09:05	23.6	23.6	23.6	71	15.6	0	1	90	0.00	30.329 
09:10	24.2	24.2	24.2	69	15.5	0	1	90	0.00	30.324 
09:15	24.8	24.8	24.8	67	15.4	0	2	112	0.00	30.332 
09:20	25.4	25.4	25.4	66	15.7	0	1	112	0.00	30.334 
09:25	26.0	26.0	26.0	65	15.9	0	1	112	0.00	30.333 
09:30	26.1	26.1	26.1	65	16.0	1	2	112	0.00	30.333 
09:35	26.1	26.1	26.1	65	16.0	1	3	248	0.00	30.333 
09:40	26.3	26.3	26.3	67	16.9	1	2	248	0.00	30.332 
09:45	26.6	26.6	26.6	65	16.4	1	3	248	0.00	30.334 
09:50	26.9	26.9	26.9	64	16.4	1	2	248	0.00	30.336 
09:55	27.2	27.2	27.2	62	15.9	1	3	248	0.00	30.337 
10:00	27.5	27.5	27.5	64	16.9	1	5	248	0.00	30.337 
10:05	27.9	27.9	27.9	62	16.6	1	3	248	0.00	30.340 
10:10	28.2	28.2	28.2	61	16.5	1	2	292	0.00	30.338 
10:15	28.7	28.7	28.7	58	15.8	2	7	292	0.00	30.332 
10:20	28.7	28.7	28.7	57	15.4	2	5	248	0.00	30.331 
10:25	29.1	29.1	29.1	58	16.2	1	5	248	0.00	30.330 
10:30	29.4	29.4	29.4	55	15.3	2	5	248	0.00	30.329 
10:35	29.3	29.3	29.3	56	15.6	1	4	248	0.00	30.328 
10:40	29.8	29.8	29.8	58	16.8	1	4	248	0.00	30.330 
10:45	30.3	30.3	30.3	57	16.9	1	4	225	0.00	30.332 
10:50	30.7	30.7	30.7	57	17.3	1	4	248	0.00	30.334 
10:55	31.6	31.6	31.6	56	17.7	1	3	248	0.00	30.332 
11:00	31.6	31.6	31.6	53	16.5	1	4	248	0.00	30.333 
11:05	31.8	31.8	31.8	56	17.9	1	2	270	0.00	30.332 
11:10	31.6	31.6	31.6	52	16.0	1	3	248	0.00	30.339 
11:15	31.5	31.5	31.5	54	16.8	1	3	338	0.00	30.336 
11:20	31.5	31.5	31.5	52	15.9	2	5	248	0.00	30.334 
11:25	31.8	31.8	31.8	54	17.1	1	4	338	0.00	30.334 
11:30	32.2	32.2	32.2	53	17.0	1	3	248	0.00	30.335 
11:35	32.2	32.2	32.2	54	17.4	1	2	292	0.00	30.332 
11:40	32.1	32.1	32.1	53	16.9	2	4	248	0.00	30.330 
11:45	32.5	32.5	32.5	55	18.2	1	3	248	0.00	30.327 
11:50	32.8	32.8	32.8	53	17.6	1	2	248	0.00	30.327 
11:55	32.9	32.9	32.9	53	17.7	1	5	248	0.00	30.324 
12:00	32.8	32.8	32.8	51	16.7	1	4	248	0.00	30.325 
12:05	32.9	32.9	32.9	53	17.7	0	1	248	0.00	30.323 
12:10	33.5	33.5	33.5	53	18.2	1	4	248	0.00	30.323 
12:15	34.0	34.0	34.0	51	17.8	1	3	270	0.00	30.314 
12:20	34.0	34.0	34.0	54	19.1	1	3	248	0.00	30.312 
12:25	34.0	34.0	34.0	51	17.8	1	3	248	0.00	30.311 
12:30	34.3	34.3	34.3	50	17.6	1	3	248	0.00	30.309 
12:35	34.3	34.3	34.3	50	17.6	0	1	248	0.00	30.309 
12:40	34.7	34.7	34.7	52	18.9	0	2	225	0.00	30.302 
12:45	34.6	34.6	34.6	48	16.9	1	4	45	0.00	30.302 
12:50	34.1	34.1	34.1	50	17.4	1	4	112	0.00	30.300 
12:55	34.3	34.3	34.3	51	18.1	0	2	135	0.00	30.295 
13:00	34.3	34.3	34.3	50	17.6	2	6	112	0.00	30.295 
13:05	34.0	34.0	34.0	54	19.1	2	6	90	0.00	30.296 
13:10	34.0	34.0	34.0	52	18.2	1	3	338	0.00	30.293 
13:15	34.3	34.3	34.3	53	19.0	1	3	0	0.00	30.286 
13:20	34.3	34.3	34.3	50	17.6	2	6	90	0.00	30.283 
13:25	34.4	34.4	34.4	50	17.7	1	6	90	0.00	30.282 
13:30	34.7	34.7	34.7	52	18.9	2	5	90	0.00	30.278 
13:35	34.9	34.9	34.9	53	19.5	3	10	112	0.00	30.278 
13:40	34.7	34.7	34.7	50	18.0	2	6	112	0.00	30.277 
13:45	34.7	34.7	34.7	53	19.3	2	5	90	0.00	30.274 
13:50	34.7	34.7	34.7	53	19.3	3	6	112	0.00	30.271 
13:55	35.0	35.0	35.0	53	19.6	2	6	112	0.00	30.274 
14:00	35.0	35.0	35.0	52	19.2	3	6	112	0.00	30.272 
14:05	35.0	35.0	35.0	52	19.2	1	4	112	0.00	30.268 
14:10	35.0	35.0	35.0	53	19.6	3	6	112	0.00	30.265 
14:15	35.3	35.3	35.3	54	20.3	2	6	90	0.00	30.264 
14:20	35.5	35.5	35.5	53	20.1	2	9	90	0.00	30.263 
14:25	35.5	35.5	35.5	53	20.1	2	6	112	0.00	30.262 
14:30	35.5	35.5	35.5	52	19.6	3	5	112	0.00	30.261 
14:35	35.9	35.9	35.9	53	20.5	1	4	90	0.00	30.262 
14:40	36.3	36.3	36.3	55	21.7	2	5	90	0.00	30.260 
14:45	36.6	36.6	36.6	51	20.2	2	5	90	0.00	30.259 
14:50	36.3	36.3	36.3	53	20.8	2	6	135	0.00	30.259 
14:55	36.2	36.2	36.2	50	19.4	1	4	158	0.00	30.258 
15:00	36.3	36.3	36.3	54	21.3	3	7	112	0.00	30.260 
15:05	36.5	36.5	36.5	53	21.0	2	6	90	0.00	30.261 
15:10	36.3	36.3	36.3	53	20.8	3	7	90	0.00	30.261 
15:15	36.0	36.0	36.0	51	19.6	2	7	90	0.00	30.258 
15:20	36.0	36.0	36.0	52	20.1	2	6	90	0.00	30.257 
15:25	36.2	36.2	36.2	53	20.7	2	5	90	0.00	30.253 
15:30	36.5	36.5	36.5	52	20.6	2	5	112	0.00	30.249 
15:35	36.2	36.2	36.2	54	21.2	3	5	112	0.00	30.248 
15:40	36.5	36.5	36.5	52	20.6	2	6	90	0.00	30.250 
15:45	36.5	36.5	36.5	54	21.5	3	6	90	0.00	30.247 
15:50	36.6	36.6	36.6	54	21.5	2	6	90	0.00	30.247 
15:55	36.6	36.6	36.6	53	21.1	3	6	112	0.00	30.247 
16:00	36.8	36.8	36.8	53	21.3	2	4	112	0.00	30.246 
16:05	36.6	36.6	36.6	52	20.7	3	7	90	0.00	30.245 
16:10	36.6	36.6	36.6	53	21.1	2	7	112	0.00	30.244 
16:15	36.6	36.6	36.6	52	20.7	3	6	112	0.00	30.244 
16:20	36.6	36.6	36.6	52	20.7	3	6	90	0.00	30.244 
16:25	36.6	36.6	36.6	53	21.1	2	5	112	0.00	30.246 
16:30	36.8	36.8	36.8	49	19.5	2	4	112	0.00	30.246 
16:35	36.8	36.8	36.8	49	19.5	1	4	135	0.00	30.247 
16:40	36.8	36.8	36.8	51	20.4	2	5	90	0.00	30.247 
16:45	36.9	36.9	36.9	51	20.5	1	3	112	0.00	30.246 
16:50	37.0	37.0	37.0	52	21.0	1	3	112	0.00	30.246 
16:55	37.0	37.0	37.0	52	21.0	3	7	112	0.00	30.243 
17:00	36.8	36.8	36.8	52	20.8	2	4	90	0.00	30.237 
17:05	36.8	36.8	36.8	51	20.4	2	5	112	0.00	30.238 
17:10	36.6	36.6	36.6	52	20.7	2	5	112	0.00	30.239 
17:15	36.5	36.5	36.5	53	21.0	3	5	112	0.00	30.239 
17:20	36.5	36.5	36.5	54	21.5	3	7	112	0.00	30.238 
17:25	36.3	36.3	36.3	54	21.3	2	5	112	0.00	30.237 
17:30	36.3	36.3	36.3	54	21.3	3	6	90	0.00	30.242 
17:35	36.2	36.2	36.2	55	21.6	2	5	112	0.00	30.241 
17:40	36.2	36.2	36.2	55	21.6	3	5	112	0.00	30.238 
17:45	36.0	36.0	36.0	55	21.4	3	6	90	0.00	30.238 
17:50	36.0	36.0	36.0	55	21.4	3	7	112	0.00	30.237 
17:55	35.9	35.9	35.9	57	22.2	2	4	112	0.00	30.238 
18:00	35.8	35.8	35.8	57	22.1	3	6	112	0.00	30.240 
18:05	35.6	35.6	35.6	57	21.9	2	6	90	0.00	30.240 
18:10	35.5	35.5	35.5	60	23.0	2	5	112	0.00	30.240 
18:15	35.0	35.0	35.0	63	23.7	1	3	112	0.00	30.240 
18:20	34.7	34.7	34.7	63	23.4	2	5	112	0.00	30.239 
18:25	34.3	34.3	34.3	64	23.4	2	4	90	0.00	30.241 
18:30	34.1	34.1	34.1	65	23.6	2	6	90	0.00	30.239 
18:35	33.8	33.8	33.8	66	23.7	1	3	90	0.00	30.240 
18:40	33.4	33.4	33.4	67	23.6	1	2	90	0.00	30.241 
18:45	33.1	33.1	33.1	67	23.4	1	3	90	0.00	30.243 
18:50	32.9	32.9	32.9	68	23.5	1	3	90	0.00	30.243 
18:55	32.8	32.8	32.8	68	23.4	1	3	90	0.00	30.244 
19:00	32.5	32.5	32.5	68	23.1	1	4	90	0.00	30.244 
19:05	32.4	32.4	32.4	68	23.0	1	3	90	0.00	30.238 
19:10	32.4	32.4	32.4	68	23.0	1	4	90	0.00	30.241 
19:15	32.2	32.2	32.2	69	23.2	1	4	90	0.00	30.241 
19:20	32.1	32.1	32.1	69	23.1	1	3	90	0.00	30.242 
19:25	31.9	31.9	31.9	69	22.9	1	3	112	0.00	30.241 
19:30	31.8	31.8	31.8	70	23.2	1	4	112	0.00	30.239 
19:35	31.6	31.6	31.6	71	23.3	2	5	112	0.00	30.240 
19:40	31.5	31.5	31.5	71	23.2	1	5	90	0.00	30.238 
19:45	31.5	31.5	31.5	71	23.2	1	3	112	0.00	30.237 
19:50	31.3	31.3	31.3	71	23.0	2	5	112	0.00	30.237 
19:55	31.2	31.2	31.2	72	23.2	1	3	90	0.00	30.243 
20:00	31.2	31.2	31.2	72	23.2	1	3	90	0.00	30.245 
20:05	30.9	30.9	30.9	72	23.0	1	2	90	0.00	30.241 
20:10	30.7	30.7	30.7	73	23.1	1	3	112	0.00	30.244 
20:15	30.6	30.6	30.6	73	23.0	1	3	90	0.00	30.244 
20:20	30.4	30.4	30.4	73	22.8	1	4	90	0.00	30.243 
20:25	30.3	30.3	30.3	73	22.7	1	3	90	0.00	30.245 
20:30	30.1	30.1	30.1	74	22.8	1	3	90	0.00	30.245 
20:35	30.1	30.1	30.1	74	22.8	1	3	90	0.00	30.244 
20:40	30.0	30.0	30.0	75	23.1	1	3	90	0.00	30.244 
20:45	29.8	29.8	29.8	75	22.9	2	3	90	0.00	30.242 
20:50	29.7	29.7	29.7	75	22.8	2	5	90	0.00	30.244 
20:55	29.7	29.7	29.7	75	22.8	2	5	90	0.00	30.244 
21:00	29.5	29.5	29.5	76	22.9	1	3	90	0.00	30.241 
21:05	29.5	29.5	29.5	76	22.9	2	7	90	0.00	30.235 
21:10	29.5	29.5	29.5	76	22.9	2	5	90	0.00	30.235 
21:15	29.4	29.4	29.4	76	22.8	2	3	90	0.00	30.240 
21:20	29.4	29.4	29.4	76	22.8	2	6	112	0.00	30.240 
21:25	29.4	29.4	29.4	76	22.8	2	4	90	0.00	30.240 
21:30	29.3	29.3	29.3	76	22.7	1	4	90	0.00	30.239 
21:35	29.1	29.1	29.1	76	22.5	2	4	112	0.00	30.238 
21:40	29.1	29.1	29.1	76	22.5	2	4	90	0.00	30.238 
21:45	29.1	29.1	29.1	76	22.5	2	5	90	0.00	30.235 
21:50	29.1	29.1	29.1	76	22.5	2	5	90	0.00	30.236 
21:55	29.0	29.0	29.0	76	22.4	2	5	112	0.00	30.237 
22:00	29.0	29.0	29.0	76	22.4	2	5	90	0.00	30.236 
22:05	28.8	28.8	28.8	76	22.2	2	4	90	0.00	30.232 
22:10	28.8	28.8	28.8	76	22.2	2	6	112	0.00	30.228 
22:15	28.8	28.8	28.8	76	22.2	2	5	112	0.00	30.224 
22:20	29.0	29.0	29.0	76	22.4	3	9	112	0.00	30.223 
22:25	29.0	29.0	29.0	76	22.4	3	6	112	0.00	30.223 
22:30	29.1	24.7	29.1	76	22.5	4	9	90	0.00	30.223 
22:35	29.1	29.1	29.1	76	22.5	3	7	90	0.00	30.223 
22:40	29.0	29.0	29.0	77	22.7	3	6	112	0.00	30.223 
22:45	29.0	29.0	29.0	77	22.7	2	5	112	0.00	30.222 
22:50	28.8	28.8	28.8	77	22.5	2	6	90	0.00	30.221 
22:55	28.7	28.7	28.7	77	22.4	2	5	90	0.00	30.218 
23:00	28.7	28.7	28.7	77	22.4	2	7	112	0.00	30.215 
23:05	28.7	28.7	28.7	77	22.4	2	5	90	0.00	30.212 
23:10	28.7	28.7	28.7	77	22.4	3	6	112	0.00	30.207 
23:15	28.7	28.7	28.7	77	22.4	3	7	112	0.00	30.205 
23:20	28.7	28.7	28.7	77	22.4	3	7	112	0.00	30.205 
23:25	28.7	28.7	28.7	77	22.4	2	4	112	0.00	30.205 
23:30	28.5	28.5	28.5	77	22.2	2	5	90	0.00	30.206 
23:35	28.5	28.5	28.5	77	22.2	2	5	112	0.00	30.204 
23:40	28.4	28.4	28.4	78	22.4	2	5	112	0.00	30.203 
23:45	28.4	28.4	28.4	78	22.4	3	5	112	0.00	30.203 
23:50	28.4	28.4	28.4	78	22.4	2	4	112	0.00	30.202 
23:55	28.2	28.2	28.2	78	22.2	2	6	112	0.00	30.198 

CoCoRaHS
IN-AL-39
A2 Web Hosting
Creative Commons License
GoDaddy
Look for:

loaded 2017-10-20 19:55:20 • last modified 2010-11-18 10:43:29
Privacy PolicyDisclaimer
• wx.awcolley.com is powered by PmWiki v.2002016 •
• all content (unless otherwise noted) © 2017 A W Colley